Time;durP1;ratioP1;P1;durP2;ratioP2;P2;SDS_P1;SDS_P2;PMS_P1;PMS_P2;Temp;Humidity;BMP_temperature;BMP_pressure;BME280_temperature;BME280_humidity;BME280_pressure;Samples;Min_cycle;Max_cycle;Signal;HPM_P1;HPM_P2
2022/10/01 00:01:12;;;;;;;12.20;9.10;;;11.10;99.90;;;;;;4940507;29;20054;-85
2022/10/01 00:03:38;;;;;;;11.23;9.20;;;11.10;99.90;;;;;;4923362;29;20044;-85
2022/10/01 00:06:14;;;;;;;11.15;9.57;;;11.10;99.90;;;;;;4920356;29;20372;-85
2022/10/01 00:08:40;;;;;;;11.98;9.55;;;11.10;99.90;;;;;;4938260;29;20051;-86
2022/10/01 00:11:12;;;;;;;11.20;9.90;;;11.10;99.90;;;;;;4937511;29;20490;-85
2022/10/01 00:13:38;;;;;;;11.82;10.45;;;11.10;99.90;;;;;;4921146;29;20132;-85
2022/10/01 00:16:07;;;;;;;12.85;10.18;;;11.00;99.90;;;;;;4920906;29;20067;-84
2022/10/01 00:18:44;;;;;;;12.73;10.73;;;11.00;99.90;;;;;;4922614;29;20059;-87
2022/10/01 00:21:12;;;;;;;11.63;9.90;;;11.00;99.90;;;;;;4922406;29;20134;-87
2022/10/01 00:23:38;;;;;;;14.85;10.80;;;11.00;99.90;;;;;;4937314;29;20047;-86
2022/10/01 00:26:29;;;;;;;11.55;10.10;;;10.90;99.90;;;;;;4937275;29;20058;-86
2022/10/01 00:28:58;;;;;;;17.70;12.70;;;11.00;99.90;;;;;;4919025;29;20107;-85
2022/10/01 00:31:24;;;;;;;12.30;11.00;;;11.00;99.90;;;;;;4920968;29;20052;-87
2022/10/01 00:33:55;;;;;;;16.27;10.70;;;11.00;99.90;;;;;;4920349;29;20138;-86
2022/10/01 00:36:21;;;;;;;14.55;11.43;;;11.00;99.90;;;;;;4922078;29;20483;-86
2022/10/01 00:38:47;;;;;;;14.65;11.02;;;11.00;99.90;;;;;;4920900;29;20035;-87
2022/10/01 00:41:15;;;;;;;14.02;10.95;;;10.90;99.90;;;;;;4938585;29;20048;-87
2022/10/01 00:43:47;;;;;;;16.58;12.02;;;10.90;99.90;;;;;;4937627;29;20483;-89
2022/10/01 00:46:24;;;;;;;14.25;10.88;;;10.90;99.90;;;;;;4921857;29;20052;-86
2022/10/01 00:49:01;;;;;;;16.67;11.32;;;10.90;99.90;;;;;;4920240;29;20047;-86
2022/10/01 00:51:37;;;;;;;14.55;11.13;;;10.90;99.90;;;;;;4921187;29;20048;-85
2022/10/01 00:54:34;;;;;;;16.63;11.90;;;10.90;99.90;;;;;;4921654;29;20062;-84
2022/10/01 00:57:01;;;;;;;12.45;10.30;;;10.90;99.90;;;;;;4918808;29;20099;-84
2022/10/01 00:59:28;;;;;;;13.77;10.68;;;10.90;99.90;;;;;;4929860;29;20471;-87
2022/10/01 01:01:53;;;;;;;15.18;11.65;;;10.90;99.90;;;;;;4936954;29;20098;-88
2022/10/01 01:04:19;;;;;;;14.70;10.00;;;10.90;99.90;;;;;;4937725;29;20083;-86
2022/10/01 01:06:56;;;;;;;13.35;10.40;;;10.90;99.90;;;;;;4935836;29;20465;-84
2022/10/01 01:09:32;;;;;;;13.35;9.63;;;10.90;99.90;;;;;;4936589;29;20091;-84
2022/10/01 01:12:13;;;;;;;13.83;10.83;;;10.90;99.90;;;;;;4937247;29;20048;-82
2022/10/01 01:15:06;;;;;;;13.57;9.93;;;10.90;99.90;;;;;;4936626;29;20324;-85
2022/10/01 01:17:46;;;;;;;15.97;9.80;;;10.90;99.90;;;;;;4936851;29;20063;-82
2022/10/01 01:20:28;;;;;;;14.10;9.85;;;10.90;99.90;;;;;;4937309;29;20283;-83
2022/10/01 01:23:15;;;;;;;13.00;9.07;;;10.80;99.90;;;;;;4937705;29;20056;-84
2022/10/01 01:25:46;;;;;;;12.88;9.68;;;10.90;99.90;;;;;;4937349;29;20047;-83
2022/10/01 01:28:30;;;;;;;13.35;9.38;;;10.80;99.90;;;;;;4937152;29;20135;-82
2022/10/01 01:31:03;;;;;;;12.50;9.52;;;10.80;99.90;;;;;;4938014;29;20044;-82
2022/10/01 01:33:33;;;;;;;12.13;8.68;;;10.80;99.90;;;;;;4936818;29;20048;-83
2022/10/01 01:36:15;;;;;;;11.68;9.35;;;10.80;99.90;;;;;;4936190;29;20134;-81
2022/10/01 01:38:48;;;;;;;14.85;10.00;;;10.80;99.90;;;;;;4935799;29;20048;-82
2022/10/01 01:41:17;;;;;;;11.80;9.05;;;10.80;99.90;;;;;;4939116;29;20055;-81
2022/10/01 01:43:46;;;;;;;11.95;9.02;;;10.80;99.90;;;;;;4941346;29;20070;-82
2022/10/01 01:46:16;;;;;;;13.52;9.95;;;10.80;99.90;;;;;;4945024;29;20146;-83
2022/10/01 01:48:46;;;;;;;10.93;9.23;;;10.80;99.90;;;;;;4939659;29;20122;-83
2022/10/01 01:51:39;;;;;;;15.35;9.88;;;10.80;99.90;;;;;;4941911;29;20122;-83
2022/10/01 01:54:05;;;;;;;10.27;8.10;;;10.80;99.90;;;;;;4932520;29;20106;-82
2022/10/01 01:56:31;;;;;;;12.45;9.63;;;10.80;99.90;;;;;;4940256;29;20559;-81
2022/10/01 01:58:59;;;;;;;13.75;9.27;;;10.80;99.90;;;;;;4942659;29;20039;-81
2022/10/01 02:01:39;;;;;;;11.35;9.38;;;10.80;99.90;;;;;;4941344;29;20055;-82
2022/10/01 02:04:23;;;;;;;16.33;9.43;;;10.80;99.90;;;;;;4939738;29;20148;-81
2022/10/01 02:07:07;;;;;;;13.82;9.45;;;10.80;99.90;;;;;;4941012;29;20056;-81
2022/10/01 02:09:50;;;;;;;10.95;9.45;;;10.80;99.90;;;;;;4923297;29;20051;-82
2022/10/01 02:12:43;;;;;;;11.93;8.90;;;10.80;99.90;;;;;;4923556;29;20439;-82
2022/10/01 02:15:16;;;;;;;11.98;8.02;;;10.80;99.90;;;;;;4924039;29;20490;-81
2022/10/01 02:17:58;;;;;;;12.60;8.35;;;10.80;99.90;;;;;;4940194;29;20103;-82
2022/10/01 02:20:47;;;;;;;11.57;7.88;;;10.80;99.90;;;;;;4924686;29;20554;-81
2022/10/01 02:23:27;;;;;;;11.32;7.47;;;10.80;99.90;;;;;;4924355;29;20484;-81
2022/10/01 02:25:58;;;;;;;9.43;7.03;;;10.80;99.90;;;;;;4923498;29;20114;-79
2022/10/01 02:28:24;;;;;;;7.80;6.45;;;10.80;99.90;;;;;;4941099;29;20052;-79
2022/10/01 02:30:52;;;;;;;9.50;6.32;;;10.80;99.90;;;;;;4941256;29;20040;-78
2022/10/01 02:33:23;;;;;;;10.60;7.55;;;10.80;99.90;;;;;;4923495;29;20082;-80
2022/10/01 02:35:52;;;;;;;9.88;7.40;;;10.80;99.90;;;;;;4923913;29;20383;-80
2022/10/01 02:38:22;;;;;;;8.98;6.22;;;10.80;99.90;;;;;;4924271;29;20139;-80
2022/10/01 02:40:51;;;;;;;9.43;7.35;;;10.90;99.90;;;;;;4923868;29;20091;-79
2022/10/01 02:43:22;;;;;;;10.45;7.25;;;10.80;99.90;;;;;;4922654;29;20052;-79
2022/10/01 02:45:58;;;;;;;9.05;6.40;;;10.80;99.90;;;;;;4921975;29;20044;-79
2022/10/01 02:48:26;;;;;;;9.63;7.00;;;10.90;99.90;;;;;;4939064;29;20079;-80
2022/10/01 02:51:21;;;;;;;12.95;6.75;;;10.80;99.90;;;;;;4922442;29;20051;-80
2022/10/01 02:53:53;;;;;;;9.40;6.35;;;10.80;99.90;;;;;;4882965;29;20056;-79
2022/10/01 02:57:21;;;;;;;8.18;6.75;;;10.90;99.90;;;;;;4939489;29;20122;-79
2022/10/01 02:59:07;;;;;;;8.65;6.68;;;10.90;99.90;;;;;;4939668;29;20063;-79
2022/10/01 03:01:36;;;;;;;7.85;6.72;;;10.90;99.90;;;;;;4937976;29;20380;-80
2022/10/01 03:04:02;;;;;;;8.90;6.63;;;10.90;99.90;;;;;;4921164;29;20070;-81
2022/10/01 03:06:27;;;;;;;9.07;6.35;;;10.90;99.90;;;;;;4922369;29;20055;-79
2022/10/01 03:08:53;;;;;;;7.78;6.00;;;10.90;99.90;;;;;;4921705;29;20175;-80
2022/10/01 03:11:19;;;;;;;8.63;6.18;;;11.00;99.90;;;;;;4938405;29;20551;-80
2022/10/01 03:13:46;;;;;;;9.88;6.60;;;11.00;99.90;;;;;;4922141;29;20047;-80
2022/10/01 03:16:11;;;;;;;8.00;5.70;;;11.00;99.90;;;;;;4922439;29;20368;-81
2022/10/01 03:18:37;;;;;;;9.25;5.90;;;11.00;99.90;;;;;;4938204;29;20534;-80
2022/10/01 03:21:03;;;;;;;6.90;5.50;;;11.00;99.90;;;;;;4921054;29;20056;-80
2022/10/01 03:23:28;;;;;;;6.75;5.40;;;11.00;99.90;;;;;;4922167;29;20060;-80
2022/10/01 03:25:54;;;;;;;6.05;5.03;;;11.00;99.90;;;;;;4939020;29;20464;-80
2022/10/01 03:28:19;;;;;;;7.40;5.25;;;11.00;99.90;;;;;;4939166;29;20043;-81
2022/10/01 03:30:45;;;;;;;6.60;5.60;;;11.00;99.90;;;;;;4939414;29;20040;-79
2022/10/01 03:33:11;;;;;;;6.97;4.80;;;11.10;99.90;;;;;;4938890;29;20072;-79
2022/10/01 03:35:36;;;;;;;5.85;4.93;;;11.10;99.90;;;;;;4921292;29;20075;-80
2022/10/01 03:38:02;;;;;;;6.00;4.72;;;11.10;99.90;;;;;;4921921;29;20051;-80
2022/10/01 03:40:27;;;;;;;7.28;4.82;;;11.20;99.90;;;;;;4938464;29;20053;-80
2022/10/01 03:42:53;;;;;;;5.57;3.65;;;11.20;99.90;;;;;;4920952;29;20110;-79
2022/10/01 03:45:19;;;;;;;5.13;3.88;;;11.20;99.90;;;;;;4939088;29;20048;-80
2022/10/01 03:47:51;;;;;;;4.75;3.67;;;11.20;99.90;;;;;;4938397;29;20044;-79
2022/10/01 03:50:16;;;;;;;6.47;3.80;;;11.20;99.90;;;;;;4938955;29;20047;-80
2022/10/01 03:52:43;;;;;;;4.95;3.40;;;11.30;99.90;;;;;;4921477;29;20050;-80
2022/10/01 03:55:09;;;;;;;6.82;3.05;;;11.30;99.90;;;;;;4923011;29;20090;-80
2022/10/01 03:57:35;;;;;;;5.20;3.33;;;11.30;99.90;;;;;;4921969;29;20103;-80
2022/10/01 04:00:00;;;;;;;3.95;3.13;;;11.30;99.90;;;;;;4937002;29;20051;-81
2022/10/01 04:02:26;;;;;;;4.63;3.10;;;11.30;99.90;;;;;;4938321;29;20087;-80
2022/10/01 04:04:52;;;;;;;4.38;2.78;;;11.30;99.90;;;;;;4920231;29;20083;-81
2022/10/01 04:07:17;;;;;;;4.57;3.28;;;11.30;99.90;;;;;;4937435;29;20050;-80
2022/10/01 04:09:43;;;;;;;4.10;2.83;;;11.30;99.90;;;;;;4920280;29;20570;-81
2022/10/01 04:12:08;;;;;;;4.55;2.78;;;11.40;99.90;;;;;;4920148;29;20058;-80
2022/10/01 04:14:34;;;;;;;4.45;2.90;;;11.40;99.90;;;;;;4920960;29;20048;-81
2022/10/01 04:17:00;;;;;;;4.63;3.25;;;11.40;99.90;;;;;;4936989;29;20044;-80
2022/10/01 04:19:25;;;;;;;4.60;3.17;;;11.40;99.90;;;;;;4937281;29;20055;-80
2022/10/01 04:21:51;;;;;;;4.60;3.45;;;11.40;99.90;;;;;;4937944;29;20127;-80
2022/10/01 04:24:17;;;;;;;5.78;3.85;;;11.50;99.90;;;;;;4920673;29;20040;-81
2022/10/01 04:26:42;;;;;;;6.55;3.95;;;11.50;99.90;;;;;;4920186;29;20475;-80
2022/10/01 04:29:08;;;;;;;5.82;3.67;;;11.50;99.90;;;;;;4937525;29;20047;-81
2022/10/01 04:31:34;;;;;;;5.32;4.00;;;11.50;99.90;;;;;;4919624;29;20131;-80
2022/10/01 04:34:00;;;;;;;5.35;3.72;;;11.50;99.90;;;;;;4938163;29;20051;-81
2022/10/01 04:36:25;;;;;;;4.80;4.00;;;11.50;99.90;;;;;;4936778;29;20051;-80
2022/10/01 04:38:52;;;;;;;5.10;3.80;;;11.50;99.90;;;;;;4919521;29;20051;-80
2022/10/01 04:41:19;;;;;;;7.03;3.88;;;11.50;99.90;;;;;;4937430;29;20132;-80
2022/10/01 04:43:45;;;;;;;6.15;4.53;;;11.60;99.90;;;;;;4920119;29;20054;-79
2022/10/01 04:46:10;;;;;;;6.07;4.65;;;11.60;99.90;;;;;;4921274;29;20131;-80
2022/10/01 04:48:36;;;;;;;7.40;4.75;;;11.60;99.90;;;;;;4937238;29;20483;-81
2022/10/01 04:51:02;;;;;;;7.60;4.80;;;11.60;99.90;;;;;;4919970;29;20048;-81
2022/10/01 04:53:28;;;;;;;5.88;4.40;;;11.60;99.90;;;;;;4920186;29;20047;-80
2022/10/01 04:55:53;;;;;;;5.30;4.40;;;11.60;99.90;;;;;;4919323;29;20567;-80
2022/10/01 04:58:19;;;;;;;6.03;4.53;;;11.60;99.90;;;;;;4937648;29;20455;-80
2022/10/01 05:00:45;;;;;;;6.35;4.80;;;11.60;99.90;;;;;;4921097;29;20055;-80
2022/10/01 05:03:10;;;;;;;7.75;6.00;;;11.60;99.90;;;;;;4920813;29;20511;-80
2022/10/01 05:05:36;;;;;;;6.55;5.20;;;11.60;99.90;;;;;;4919946;29;20048;-79
2022/10/01 05:08:02;;;;;;;6.70;5.07;;;11.60;99.90;;;;;;4919334;29;20054;-80
2022/10/01 05:10:28;;;;;;;8.50;4.90;;;11.70;99.90;;;;;;4937044;29;20146;-80
2022/10/01 05:12:53;;;;;;;6.50;4.88;;;11.70;99.90;;;;;;4936243;29;20051;-80
2022/10/01 05:15:19;;;;;;;7.13;4.88;;;11.70;99.90;;;;;;4919673;29;20051;-79
2022/10/01 05:17:46;;;;;;;9.45;5.03;;;11.70;99.90;;;;;;4923202;29;20498;-80
2022/10/01 05:20:20;;;;;;;7.43;5.22;;;11.70;99.90;;;;;;4923879;29;20055;-80
2022/10/01 05:22:46;;;;;;;8.68;5.45;;;11.70;99.90;;;;;;4924497;29;20059;-80
2022/10/01 05:25:12;;;;;;;8.27;5.90;;;11.80;99.90;;;;;;4940727;29;20495;-80
2022/10/01 05:27:39;;;;;;;8.88;5.90;;;11.70;99.90;;;;;;4942186;29;20059;-80
2022/10/01 05:30:07;;;;;;;9.38;5.80;;;11.70;99.90;;;;;;4923376;29;20043;-79
2022/10/01 05:32:33;;;;;;;7.28;5.78;;;11.70;99.90;;;;;;4922918;29;20055;-80
2022/10/01 05:34:59;;;;;;;10.20;5.93;;;11.70;99.90;;;;;;4939866;29;20047;-80
2022/10/01 05:37:25;;;;;;;8.48;6.68;;;11.80;99.90;;;;;;4923021;29;20371;-80
2022/10/01 05:39:50;;;;;;;8.95;6.55;;;11.80;99.90;;;;;;4921794;29;20051;-80
2022/10/01 05:42:16;;;;;;;8.85;6.80;;;11.80;99.90;;;;;;4938604;29;20439;-80
2022/10/01 05:44:45;;;;;;;9.60;6.90;;;11.80;99.90;;;;;;4921917;29;20051;-80
2022/10/01 05:47:15;;;;;;;12.73;7.32;;;11.80;99.90;;;;;;4921993;29;20126;-80
2022/10/01 05:49:43;;;;;;;11.52;7.43;;;11.90;99.90;;;;;;4922255;29;20115;-80
2022/10/01 05:52:13;;;;;;;10.95;7.47;;;11.90;99.90;;;;;;4922054;29;20090;-79
2022/10/01 05:54:39;;;;;;;11.95;8.20;;;11.90;99.90;;;;;;4922054;29;20506;-79
2022/10/01 05:57:06;;;;;;;9.75;7.15;;;11.90;99.90;;;;;;4921726;29;20044;-79
2022/10/01 05:59:33;;;;;;;11.40;6.85;;;11.90;99.90;;;;;;4921536;29;20068;-80
2022/10/01 06:01:59;;;;;;;10.48;6.60;;;11.80;99.90;;;;;;4921642;29;20121;-79
2022/10/01 06:04:24;;;;;;;12.02;5.78;;;11.90;99.90;;;;;;4921849;29;20044;-79
2022/10/01 06:06:51;;;;;;;11.45;6.90;;;11.80;99.90;;;;;;4921743;29;20059;-79
2022/10/01 06:09:17;;;;;;;9.35;5.82;;;11.90;99.90;;;;;;4921714;29;20102;-80
2022/10/01 06:11:43;;;;;;;10.55;6.70;;;11.90;99.90;;;;;;4938693;29;20055;-79
2022/10/01 06:14:08;;;;;;;14.02;6.72;;;11.90;99.90;;;;;;4921432;29;20054;-80
2022/10/01 06:16:34;;;;;;;12.95;6.32;;;11.90;99.90;;;;;;4921687;29;20131;-79
2022/10/01 06:18:59;;;;;;;9.15;5.97;;;11.90;99.90;;;;;;4921569;29;20052;-79
2022/10/01 06:21:26;;;;;;;11.43;5.88;;;11.90;99.90;;;;;;4921703;29;20499;-79
2022/10/01 06:23:52;;;;;;;9.35;5.68;;;11.90;99.90;;;;;;4921377;29;20048;-79
2022/10/01 06:26:19;;;;;;;12.25;5.95;;;11.90;99.90;;;;;;4921631;29;20102;-79
2022/10/01 06:28:47;;;;;;;12.65;5.78;;;12.00;99.90;;;;;;4921575;29;20052;-79
2022/10/01 06:31:12;;;;;;;10.85;4.93;;;12.00;99.90;;;;;;4921212;29;20055;-80
2022/10/01 06:33:38;;;;;;;14.90;5.18;;;12.00;99.90;;;;;;4921059;29;20062;-80
2022/10/01 06:36:04;;;;;;;12.85;5.07;;;12.10;99.90;;;;;;4938130;29;20044;-79
2022/10/01 06:38:29;;;;;;;13.32;4.47;;;12.10;99.90;;;;;;4938300;29;20031;-79
2022/10/01 06:41:00;;;;;;;13.73;5.03;;;12.10;99.90;;;;;;4921312;29;20440;-79
2022/10/01 06:43:28;;;;;;;12.80;4.40;;;12.20;99.90;;;;;;4938260;29;20051;-81
2022/10/01 06:45:55;;;;;;;8.77;4.20;;;12.20;99.90;;;;;;4937858;29;20047;-81
2022/10/01 06:48:21;;;;;;;13.90;4.05;;;12.30;99.90;;;;;;4938070;29;20130;-80
2022/10/01 06:50:49;;;;;;;15.23;4.63;;;12.30;99.90;;;;;;4935706;29;20146;-79
2022/10/01 06:53:16;;;;;;;14.35;4.55;;;12.40;99.90;;;;;;4928292;29;20543;-80
2022/10/01 06:55:42;;;;;;;8.98;4.15;;;12.50;99.90;;;;;;4901709;29;20139;-81
2022/10/01 06:58:25;;;;;;;13.18;4.60;;;12.50;99.90;;;;;;4901260;29;20050;-80
2022/10/01 07:00:50;;;;;;;8.87;3.73;;;12.60;99.90;;;;;;4901656;29;20122;-80
2022/10/01 07:03:20;;;;;;;16.17;4.50;;;12.70;99.90;;;;;;4901432;29;20480;-80
2022/10/01 07:05:48;;;;;;;12.68;4.00;;;12.70;99.90;;;;;;4918343;29;20444;-79
2022/10/01 07:08:14;;;;;;;11.60;4.78;;;12.70;99.90;;;;;;4901406;29;20052;-79
2022/10/01 07:10:40;;;;;;;10.85;3.47;;;12.60;99.90;;;;;;4901358;29;20131;-79
2022/10/01 07:13:08;;;;;;;15.57;3.78;;;12.70;99.90;;;;;;4918094;29;20055;-79
2022/10/01 07:15:34;;;;;;;16.80;4.15;;;12.70;99.90;;;;;;4918272;29;20087;-79
2022/10/01 07:18:00;;;;;;;16.38;3.88;;;12.80;99.90;;;;;;4900852;29;20144;-79
2022/10/01 07:20:25;;;;;;;12.75;3.47;;;12.80;99.90;;;;;;4918462;29;20048;-80
2022/10/01 07:22:57;;;;;;;12.68;3.53;;;12.90;99.90;;;;;;4901319;29;20063;-80
2022/10/01 07:25:24;;;;;;;12.85;3.03;;;13.00;99.90;;;;;;4918182;29;20123;-79
2022/10/01 07:27:53;;;;;;;13.85;3.05;;;13.00;99.90;;;;;;4901248;29;20060;-79
2022/10/01 07:30:19;;;;;;;13.50;3.50;;;13.10;99.90;;;;;;4918256;29;20075;-80
2022/10/01 07:32:44;;;;;;;19.23;3.35;;;13.20;99.90;;;;;;4900925;29;20115;-79
2022/10/01 07:35:10;;;;;;;15.68;2.85;;;13.20;99.90;;;;;;4901297;29;20080;-79
2022/10/01 07:37:36;;;;;;;12.80;2.97;;;13.20;99.90;;;;;;4917938;29;20470;-80
2022/10/01 07:40:01;;;;;;;9.77;2.63;;;13.30;99.90;;;;;;4917348;29;20048;-79
2022/10/01 07:42:27;;;;;;;12.02;3.00;;;13.40;99.90;;;;;;4918027;29;20519;-79
2022/10/01 07:44:54;;;;;;;9.32;2.53;;;13.50;99.90;;;;;;4900737;29;20052;-79
2022/10/01 07:47:20;;;;;;;11.68;2.33;;;13.50;99.90;;;;;;4900667;29;20059;-79
2022/10/01 07:49:45;;;;;;;11.77;4.35;;;13.50;99.90;;;;;;4900655;29;20051;-78
2022/10/01 07:52:11;;;;;;;14.57;3.25;;;13.70;99.90;;;;;;4917628;29;20086;-79
2022/10/01 07:54:39;;;;;;;13.75;2.70;;;13.70;99.90;;;;;;4917440;29;20044;-79
2022/10/01 07:57:08;;;;;;;12.75;2.92;;;13.70;99.90;;;;;;4917793;29;20059;-79
2022/10/01 07:59:33;;;;;;;15.45;2.80;;;13.90;99.90;;;;;;4917320;29;20064;-78
2022/10/01 08:01:59;;;;;;;14.07;2.63;;;13.90;99.90;;;;;;4917871;29;20047;-79
2022/10/01 08:07:14;;;;;;;13.13;3.17;;;14.00;99.90;;;;;;4900322;29;20063;-78
2022/10/01 08:09:39;;;;;;;15.65;3.42;;;14.00;99.90;;;;;;4900639;29;20044;-79
2022/10/01 08:12:06;;;;;;;11.73;1.95;;;14.20;99.90;;;;;;4917299;29;20389;-79
2022/10/01 08:14:32;;;;;;;9.63;2.42;;;14.30;99.90;;;;;;4900282;29;20062;-79
2022/10/01 08:16:58;;;;;;;16.58;2.42;;;14.40;99.90;;;;;;4900258;29;20404;-79
2022/10/01 08:19:24;;;;;;;15.52;2.20;;;14.50;99.90;;;;;;4900284;29;20056;-79
2022/10/01 08:21:49;;;;;;;11.43;2.05;;;14.40;99.90;;;;;;4919116;29;20070;-79
2022/10/01 08:24:16;;;;;;;16.15;2.92;;;14.60;99.90;;;;;;4935796;29;20403;-79
2022/10/01 08:26:42;;;;;;;17.63;1.92;;;14.70;99.90;;;;;;4919103;29;20047;-79
2022/10/01 08:29:08;;;;;;;14.15;1.85;;;14.80;99.90;;;;;;4919127;29;20075;-79
2022/10/01 08:31:34;;;;;;;12.65;2.53;;;14.80;99.90;;;;;;4919029;29;20098;-79
2022/10/01 08:33:59;;;;;;;11.15;1.75;;;14.90;99.90;;;;;;4918599;29;20055;-79
2022/10/01 08:36:25;;;;;;;16.20;3.20;;;15.00;99.90;;;;;;4918776;29;20044;-79
2022/10/01 08:38:50;;;;;;;14.40;2.53;;;15.10;99.90;;;;;;4936331;29;20159;-80
2022/10/01 08:41:52;;;;;;;12.70;2.22;;;15.10;99.90;;;;;;4919191;29;20059;-79
2022/10/01 08:44:26;;;;;;;14.98;2.97;;;15.00;99.90;;;;;;4906334;29;20043;-79
2022/10/01 08:46:59;;;;;;;9.65;2.40;;;14.80;99.90;;;;;;4918833;29;20052;-79
2022/10/01 08:49:33;;;;;;;;;;;14.70;99.90;;;;;;4936582;29;20050;-79
2022/10/01 08:52:19;;;;;;;12.43;3.08;;;14.60;99.90;;;;;;4922060;29;19922;-79
2022/10/01 08:54:54;;;;;;;8.30;2.13;;;14.40;99.90;;;;;;4940030;29;20048;-79
2022/10/01 08:57:28;;;;;;;13.52;2.00;;;14.10;99.90;;;;;;4922434;29;20048;-78
2022/10/01 08:59:58;;;;;;;9.10;2.10;;;14.10;99.90;;;;;;4934818;29;20520;-78
2022/10/01 09:02:30;;;;;;;8.48;1.50;;;14.00;99.90;;;;;;4939894;29;20211;-78
2022/10/01 09:05:00;;;;;;;9.68;2.22;;;14.00;99.90;;;;;;4938477;29;20055;-78
2022/10/01 09:07:56;;;;;;;11.77;1.60;;;14.10;99.90;;;;;;4939555;29;20044;-78
2022/10/01 09:10:24;;;;;;;11.48;2.40;;;14.30;99.90;;;;;;4938351;29;20568;-79
2022/10/01 09:13:17;;;;;;;11.95;1.95;;;14.50;99.90;;;;;;4938471;29;20075;-78
2022/10/01 09:15:48;;;;;;;13.45;3.03;;;14.70;99.90;;;;;;4930528;29;20055;-79
2022/10/01 09:18:32;;;;;;;14.25;2.05;;;14.90;99.90;;;;;;4938283;29;20087;-79
2022/10/01 09:20:58;;;;;;;12.02;1.73;;;15.00;99.90;;;;;;4939508;29;20048;-79
2022/10/01 09:23:30;;;;;;;9.93;1.65;;;15.10;99.90;;;;;;4938033;29;20048;-79
2022/10/01 09:25:58;;;;;;;;;;;15.20;99.90;;;;;;4938694;29;20052;-79
2022/10/01 09:28:28;;;;;;;9.50;1.50;;;15.40;99.90;;;;;;4938153;29;20370;-78
2022/10/01 09:31:17;;;;;;;12.15;1.75;;;15.40;99.90;;;;;;4939169;29;20509;-78
2022/10/01 09:34:00;;;;;;;7.63;1.05;;;15.20;99.90;;;;;;4937784;29;20056;-78
2022/10/01 09:36:36;;;;;;;6.63;0.88;;;14.80;99.90;;;;;;4937886;29;20048;-79
2022/10/01 09:39:11;;;;;;;8.27;1.58;;;14.50;99.90;;;;;;4937803;29;20043;-79
2022/10/01 09:41:37;;;;;;;6.82;1.33;;;14.00;99.90;;;;;;4938040;29;20043;-79
2022/10/01 09:44:04;;;;;;;8.10;1.40;;;13.80;99.90;;;;;;4937747;29;20056;-79
2022/10/01 09:46:30;;;;;;;8.98;1.55;;;13.60;99.90;;;;;;4937596;29;20047;-79
2022/10/01 09:49:19;;;;;;;7.55;1.52;;;13.50;99.90;;;;;;4935901;29;20051;-78
2022/10/01 09:51:48;;;;;;;10.30;2.33;;;13.50;99.90;;;;;;4937189;29;20126;-79
2022/10/01 09:54:28;;;;;;;8.63;2.45;;;13.50;99.90;;;;;;4937424;29;20526;-78
2022/10/01 09:57:00;;;;;;;9.95;1.70;;;13.60;99.90;;;;;;4938731;29;20067;-79
2022/10/01 09:59:53;;;;;;;10.38;2.08;;;13.70;99.90;;;;;;4938500;29;20062;-79
2022/10/01 10:02:30;;;;;;;12.93;1.98;;;14.10;99.90;;;;;;4938517;29;20167;-79
2022/10/01 10:05:06;;;;;;;14.15;1.75;;;14.30;99.90;;;;;;4939886;29;20043;-79
2022/10/01 10:07:33;;;;;;;15.60;1.77;;;14.40;99.90;;;;;;4919432;29;20118;-79
2022/10/01 10:10:20;;;;;;;14.75;2.60;;;14.40;99.90;;;;;;4921237;29;20399;-79
2022/10/01 10:12:47;;;;;;;14.95;4.18;;;14.30;99.90;;;;;;4938333;29;20043;-79
2022/10/01 10:15:17;;;;;;;13.82;3.15;;;14.20;99.90;;;;;;4938322;29;20062;-78
2022/10/01 10:17:48;;;;;;;13.48;2.35;;;14.20;99.90;;;;;;4921294;29;20407;-78
2022/10/01 10:20:24;;;;;;;15.90;3.67;;;14.10;99.90;;;;;;4937668;29;20090;-78
2022/10/01 10:22:50;;;;;;;10.48;2.65;;;14.00;99.90;;;;;;4921489;29;20075;-79
2022/10/01 10:25:22;;;;;;;8.00;2.22;;;14.00;99.90;;;;;;4921071;29;20052;-78
2022/10/01 10:27:54;;;;;;;8.37;2.60;;;14.00;99.90;;;;;;4921429;29;20485;-78
2022/10/01 10:30:25;;;;;;;13.70;2.90;;;13.90;99.90;;;;;;4920997;29;20090;-78
2022/10/01 10:32:53;;;;;;;9.07;3.40;;;13.70;99.90;;;;;;4938112;29;20043;-78
2022/10/01 10:35:28;;;;;;;11.05;4.32;;;13.70;99.90;;;;;;4937991;29;20051;-78
2022/10/01 10:37:56;;;;;;;8.20;2.50;;;13.70;99.90;;;;;;4921003;29;20058;-78
2022/10/01 10:40:31;;;;;;;9.57;1.85;;;13.50;99.90;;;;;;4937673;29;20531;-78
2022/10/01 10:42:58;;;;;;;5.95;1.20;;;13.60;99.90;;;;;;4938158;29;20054;-81
2022/10/01 10:45:35;;;;;;;7.00;1.65;;;13.50;99.90;;;;;;4920872;29;20048;-78
2022/10/01 10:48:03;;;;;;;9.32;1.30;;;13.40;99.90;;;;;;4920755;29;20083;-79
2022/10/01 10:50:32;;;;;;;14.27;2.47;;;13.40;99.90;;;;;;4937823;29;20052;-78
2022/10/01 10:52:58;;;;;;;6.78;1.60;;;13.40;99.90;;;;;;4937897;29;20051;-78
2022/10/01 10:55:31;;;;;;;13.13;3.92;;;13.50;99.90;;;;;;4937811;29;20044;-78
2022/10/01 10:58:18;;;;;;;13.43;3.58;;;13.50;99.90;;;;;;4937651;29;20040;-78
2022/10/01 11:00:51;;;;;;;8.00;2.20;;;13.70;99.90;;;;;;4937559;29;20086;-79
2022/10/01 11:03:21;;;;;;;9.65;2.10;;;13.90;99.90;;;;;;4920480;29;20490;-79
2022/10/01 11:05:50;;;;;;;11.80;3.35;;;14.10;99.90;;;;;;4937640;29;20047;-78
2022/10/01 11:08:24;;;;;;;8.50;2.30;;;14.30;99.90;;;;;;4920245;29;20505;-78
2022/10/01 11:11:24;;;;;;;8.00;1.73;;;14.50;99.90;;;;;;4920327;29;20040;-78
2022/10/01 11:13:58;;;;;;;12.82;3.22;;;14.70;99.90;;;;;;4919381;29;20051;-79
2022/10/01 11:16:27;;;;;;;8.30;2.50;;;14.70;99.90;;;;;;4920231;29;20059;-78
2022/10/01 11:19:13;;;;;;;9.57;1.40;;;14.70;99.90;;;;;;4920418;29;20131;-79
2022/10/01 11:22:04;;;;;;;9.02;1.50;;;14.80;99.90;;;;;;4920072;29;20047;-80
2022/10/01 11:25:07;;;;;;;9.50;1.60;;;15.10;99.90;;;;;;4920051;29;20083;-79
2022/10/01 11:27:57;;;;;;;12.30;2.03;;;15.10;99.90;;;;;;4920238;29;20059;-79
2022/10/01 11:30:32;;;;;;;14.27;2.15;;;15.20;99.90;;;;;;4937137;29;20047;-79
2022/10/01 11:33:25;;;;;;;13.13;2.00;;;15.20;99.90;;;;;;4936864;29;20044;-79
2022/10/01 11:36:13;;;;;;;10.88;2.53;;;15.30;99.90;;;;;;4937180;29;20052;-79
2022/10/01 11:38:47;;;;;;;12.23;1.83;;;15.40;99.90;;;;;;4937146;29;20120;-78
2022/10/01 11:41:21;;;;;;;8.90;2.20;;;15.30;99.90;;;;;;4936851;29;20377;-79
2022/10/01 11:44:06;;;;;;;11.25;2.20;;;15.30;99.90;;;;;;4919994;29;20479;-80
2022/10/01 11:47:07;;;;;;;10.90;2.50;;;15.30;99.90;;;;;;4920033;29;20508;-82
2022/10/01 11:49:51;;;;;;;14.32;2.33;;;15.30;99.90;;;;;;4936661;29;20055;-78
2022/10/01 11:52:40;;;;;;;11.45;2.70;;;15.30;99.90;;;;;;4919237;29;20043;-78
2022/10/01 12:01:23;;;;;;;13.10;2.45;;;15.40;99.90;;;;;;4936444;29;20472;-78
2022/10/01 12:03:52;;;;;;;19.00;2.78;;;15.30;99.90;;;;;;4919683;29;20088;-78
2022/10/01 12:06:29;;;;;;;12.60;3.03;;;15.30;99.90;;;;;;4919414;29;20050;-78
2022/10/01 12:09:12;;;;;;;8.70;2.03;;;15.30;99.90;;;;;;4919425;29;20079;-79
2022/10/01 12:11:45;;;;;;;10.88;2.40;;;15.30;99.90;;;;;;4936248;29;20391;-78
2022/10/01 12:14:19;;;;;;;;;;;15.50;99.90;;;;;;4936572;29;20399;-79
2022/10/01 12:17:16;;;;;;;12.65;3.10;;;15.50;99.90;;;;;;4919175;29;19934;-78
2022/10/01 12:19:49;;;;;;;12.13;2.45;;;15.40;99.90;;;;;;4919158;29;20055;-78
2022/10/01 12:22:26;;;;;;;11.10;2.00;;;15.40;99.90;;;;;;4919207;29;20537;-78
2022/10/01 12:24:52;;;;;;;10.40;2.25;;;15.40;99.90;;;;;;4919308;29;20440;-78
2022/10/01 12:27:43;;;;;;;13.07;2.92;;;15.30;99.90;;;;;;4919383;29;20054;-78
2022/10/01 12:30:14;;;;;;;10.07;1.67;;;15.40;99.90;;;;;;4919236;29;20059;-78
2022/10/01 12:32:58;;;;;;;14.13;1.77;;;15.50;99.90;;;;;;4919057;29;20047;-78
2022/10/01 12:35:36;;;;;;;11.65;2.60;;;15.60;99.90;;;;;;4936099;29;20740;-78
2022/10/01 12:38:27;;;;;;;12.63;2.88;;;15.70;99.90;;;;;;4938011;29;20039;-78
2022/10/01 12:41:07;;;;;;;9.45;1.75;;;15.90;99.90;;;;;;4917753;29;20056;-78
2022/10/01 12:43:41;;;;;;;9.43;2.15;;;16.00;99.90;;;;;;4919210;29;20082;-78
2022/10/01 12:46:26;;;;;;;9.95;2.10;;;16.10;99.90;;;;;;4918751;29;20046;-78
2022/10/01 12:48:58;;;;;;;13.90;2.47;;;16.20;99.90;;;;;;4918501;29;20044;-78
2022/10/01 12:51:36;;;;;;;11.07;1.98;;;16.20;99.90;;;;;;4919102;29;20047;-79
2022/10/01 12:54:14;;;;;;;12.55;1.83;;;16.30;99.90;;;;;;4936013;29;20051;-78
2022/10/01 12:57:03;;;;;;;8.20;1.15;;;16.30;99.90;;;;;;4919097;29;20051;-78
2022/10/01 12:59:50;;;;;;;14.90;2.25;;;16.30;99.90;;;;;;4927593;29;20060;-78
2022/10/01 13:02:18;;;;;;;10.50;1.92;;;16.10;99.90;;;;;;4935928;29;20100;-80
2022/10/01 13:04:55;;;;;;;6.80;1.30;;;15.90;99.90;;;;;;4934531;29;20549;-78
2022/10/01 13:07:39;;;;;;;9.18;1.60;;;15.70;99.90;;;;;;4934288;29;20480;-79
2022/10/01 13:10:29;;;;;;;10.18;1.67;;;15.40;99.90;;;;;;4935938;29;20055;-78
2022/10/01 13:13:07;;;;;;;8.50;0.98;;;15.10;99.90;;;;;;4933194;29;20795;-78